Rockhurst, New York
Current Conditions -  °F | °C
As of 8:53 PM on Tuesday 21 Oct 2014 (Local Time) from KGFL Reporting Station
Overcast Overcast  
Wind Chill: 51°   Ceiling: 1900
Heat Index: 51°   Visibility: 10mi
Dew Point: 46°   Wind: 10mph
Humidity: 83%   Direction: 360°N
Pressure: 30.01"   Gusts: NA
Location:  43.4773°N, 73.6433°W
Report Text: KGFL 220053Z AUTO 36009KT 10SM OVC019 11/08 A3001 RMK AO2 SLP165 T01060078
Loading
Personal Weather Stations






























Interactive Weather Map
Tropical Storm Tracking
New forecast layout! Learn more

10-Day Weather Forecast

Advertisements
Track Severe Weather on mobile